createdAt,value
2018-04-25T11:50:44.086Z,1005.6
2018-04-25T11:51:44.724Z,1005.6
2018-04-25T11:52:45.362Z,1005.6
2018-04-25T11:53:46.000Z,1005.5
2018-04-25T11:54:46.639Z,1005.6
2018-04-25T11:55:47.284Z,1005.6
2018-04-25T11:56:48.024Z,1005.6
2018-04-25T11:57:48.662Z,1005.6
2018-04-25T11:58:49.403Z,1005.5
2018-04-25T11:59:50.044Z,1005.6
2018-04-25T12:00:50.683Z,1005.5
2018-04-25T12:01:51.324Z,1005.5
2018-04-25T12:02:51.976Z,1005.5
2018-04-25T12:03:52.603Z,1005.5
2018-04-25T12:04:53.319Z,1005.5
2018-04-25T12:05:53.884Z,1005.6
2018-04-25T12:06:54.625Z,1005.6
2018-04-25T12:07:55.264Z,1005.6
2018-04-25T12:08:56.004Z,1005.6
2018-04-25T12:09:56.649Z,1005.6
2018-04-25T12:10:57.292Z,1005.6
2018-04-25T12:11:57.931Z,1005.6
2018-04-25T12:12:58.572Z,1005.6
2018-04-25T12:13:59.212Z,1005.7
2018-04-25T12:14:59.953Z,1005.7
2018-04-25T12:16:00.695Z,1005.6
2018-04-25T12:17:01.437Z,1005.7
2018-04-25T12:18:02.074Z,1005.7
2018-04-25T12:19:02.716Z,1005.8
2018-04-25T12:20:03.377Z,1005.8
2018-04-25T12:21:04.147Z,1005.7
2018-04-25T12:22:04.788Z,1005.8
2018-04-25T12:23:05.428Z,1005.8
2018-04-25T12:24:06.371Z,1005.9
2018-04-25T12:25:07.011Z,1005.9
2018-04-25T12:26:07.653Z,1005.9
2018-04-25T12:27:08.294Z,1005.8
2018-04-25T12:28:08.935Z,1005.8
2018-04-25T12:29:09.576Z,1005.8
2018-04-25T12:30:10.218Z,1005.8
2018-04-25T12:31:10.862Z,1005.9
2018-04-25T12:32:11.792Z,1005.8
2018-04-25T12:33:12.529Z,1005.8
2018-04-25T12:34:13.170Z,1005.8
2018-04-25T12:35:13.815Z,1005.9
2018-04-25T12:36:14.455Z,1005.9
2018-04-25T12:37:15.094Z,1005.9
2018-04-25T12:38:15.934Z,1005.9
2018-04-25T12:39:16.575Z,1005.9
2018-04-25T12:40:17.218Z,1006.0
2018-04-25T12:41:17.861Z,1006.0
2018-04-25T12:42:18.501Z,1006.1
2018-04-25T12:43:19.147Z,1005.9
2018-04-25T12:44:19.793Z,1006.0
2018-04-25T12:45:20.440Z,1006.0
2018-04-25T12:46:21.074Z,1006.0
2018-04-25T12:47:21.815Z,1005.9
2018-04-25T12:48:22.459Z,1006.0
2018-04-25T12:49:23.097Z,1005.8
2018-04-25T12:50:23.738Z,1006.0
2018-04-25T12:51:24.481Z,1006.0
2018-04-25T12:52:25.126Z,1005.9
2018-04-25T12:53:25.767Z,1006.0
2018-04-25T12:54:26.407Z,1005.9
2018-04-25T12:55:27.050Z,1006.0
2018-04-25T12:56:27.794Z,1005.9
2018-04-25T12:57:28.428Z,1005.9
2018-04-25T12:58:29.070Z,1006.0
2018-04-25T12:59:29.710Z,1006.0
2018-04-25T13:00:30.352Z,1006.0
2018-04-25T13:01:30.990Z,1006.0
2018-04-25T13:02:31.632Z,1006.0
2018-04-25T13:03:32.373Z,1006.0
2018-04-25T13:04:33.014Z,1005.9
2018-04-25T13:05:33.756Z,1005.8
2018-04-25T13:06:34.395Z,1005.9
2018-04-25T13:07:35.135Z,1005.9
2018-04-25T13:08:35.776Z,1005.9
2018-04-25T13:09:36.517Z,1005.9
2018-04-25T13:10:37.158Z,1006.0
2018-04-25T13:11:37.800Z,1006.0
2018-04-25T13:12:38.440Z,1005.9
2018-04-25T13:13:39.182Z,1005.9
2018-04-25T13:14:39.922Z,1005.9
2018-04-25T13:15:40.565Z,1005.9
2018-04-25T13:16:41.204Z,1005.9
2018-04-25T13:17:41.844Z,1005.9
2018-04-25T13:18:42.485Z,1005.9
2018-04-25T13:19:43.127Z,1005.8
2018-04-25T13:20:43.769Z,1005.9
2018-04-25T13:21:44.409Z,1006.0
2018-04-25T13:22:45.052Z,1005.8
2018-04-25T13:23:45.691Z,1005.8
2018-04-25T13:24:46.484Z,1006.0
2018-04-25T13:25:47.126Z,1006.0
2018-04-25T13:26:47.771Z,1006.0
2018-04-25T13:27:48.410Z,1006.0
2018-04-25T13:28:49.095Z,1006.1
2018-04-25T13:29:49.697Z,1005.9
2018-04-25T13:30:50.335Z,1006.1
2018-04-25T13:31:51.126Z,1006.1
2018-04-25T13:32:51.918Z,1006.1
2018-04-25T13:33:52.566Z,1006.1
2018-04-25T13:34:53.202Z,1006.0
2018-04-25T13:35:53.841Z,1006.1
2018-04-25T13:36:54.480Z,1006.0
2018-04-25T13:37:55.159Z,1006.0
2018-04-25T13:38:55.760Z,1006.0
2018-04-25T13:39:56.403Z,1006.0
2018-04-25T13:40:57.040Z,1006.0
2018-04-25T13:41:57.682Z,1006.1
2018-04-25T13:42:58.322Z,1006.1
2018-04-25T13:43:58.964Z,1006.1
2018-04-25T13:44:59.704Z,1006.2
2018-04-25T13:46:00.344Z,1006.1
2018-04-25T13:47:00.984Z,1006.0
2018-04-25T13:48:01.728Z,1006.1
2018-04-25T13:49:02.568Z,1006.0
2018-04-25T13:50:03.209Z,1006.1
2018-04-25T13:51:03.849Z,1006.0
2018-04-25T13:52:04.553Z,1006.1
2018-04-25T13:53:05.194Z,1006.0
2018-04-25T13:54:05.831Z,1006.0
2018-04-25T13:55:06.471Z,1006.0
2018-04-25T13:56:07.112Z,1006.1
2018-04-25T13:57:07.853Z,1006.1
2018-04-25T13:58:08.496Z,1006.0
2018-04-25T13:59:09.140Z,1006.2
2018-04-25T14:00:09.785Z,1006.2
2018-04-25T14:01:10.428Z,1006.2
2018-04-25T14:02:11.068Z,1006.1
2018-04-25T14:03:11.706Z,1006.2
2018-04-25T14:04:12.348Z,1006.2
2018-04-25T14:05:12.988Z,1006.2
2018-04-25T14:06:13.676Z,1006.1
2018-04-25T14:07:14.269Z,1006.1
2018-04-25T14:08:15.010Z,1006.1
2018-04-25T14:09:15.650Z,1006.1
2018-04-25T14:10:16.292Z,1006.1
2018-04-25T14:11:16.939Z,1006.1
2018-04-25T14:12:17.620Z,1006.2
2018-04-25T14:13:18.261Z,1006.2
2018-04-25T14:14:19.000Z,1006.2
2018-04-25T14:15:19.641Z,1006.3
2018-04-25T14:16:20.282Z,1006.2
2018-04-25T14:17:20.921Z,1006.2
2018-04-25T14:18:21.564Z,1006.2
2018-04-25T14:19:22.200Z,1006.3
2018-04-25T14:20:22.840Z,1006.2
2018-04-25T14:21:23.482Z,1006.3
2018-04-25T14:22:24.122Z,1006.3
2018-04-25T14:23:24.762Z,1006.3
2018-04-25T14:24:25.536Z,1006.2
2018-04-25T14:25:26.141Z,1006.2
2018-04-25T14:26:26.783Z,1006.3
2018-04-25T14:27:27.422Z,1006.2
2018-04-25T14:28:28.064Z,1006.2
2018-04-25T14:29:28.703Z,1006.2
2018-04-25T14:30:29.357Z,1006.2
2018-04-25T14:31:29.984Z,1006.1
2018-04-25T14:32:30.624Z,1006.1
2018-04-25T14:33:31.265Z,1006.2
2018-04-25T14:34:31.905Z,1006.1
2018-04-25T14:35:32.546Z,1006.2
2018-04-25T14:36:33.193Z,1006.1
2018-04-25T14:37:34.033Z,1006.1
2018-04-25T14:38:34.669Z,1006.1
2018-04-25T14:39:35.312Z,1006.2
2018-04-25T14:40:35.949Z,1006.1
2018-04-25T14:41:36.689Z,1006.1
2018-04-25T14:42:37.329Z,1006.1
2018-04-25T14:43:37.971Z,1006.1
2018-04-25T14:44:38.609Z,1006.0
2018-04-25T14:45:39.351Z,1005.9
2018-04-25T14:46:39.991Z,1005.9
2018-04-25T14:47:40.731Z,1005.9
2018-04-25T14:48:41.372Z,1005.9
2018-04-25T14:49:42.015Z,1005.9
2018-04-25T14:50:42.656Z,1006.0
2018-04-25T14:51:43.298Z,1006.0
2018-04-25T14:52:43.936Z,1006.1
2018-04-25T14:53:44.577Z,1006.0
2018-04-25T14:54:45.272Z,1006.1
2018-04-25T14:55:45.863Z,1006.0
2018-04-25T14:56:46.508Z,1006.1
2018-04-25T14:57:47.150Z,1006.1
2018-04-25T14:58:47.789Z,1006.1
2018-04-25T14:59:48.437Z,1006.1
2018-04-25T15:00:49.073Z,1006.1
2018-04-25T15:01:49.715Z,1006.1
2018-04-25T15:02:50.356Z,1006.1
2018-04-25T15:03:50.992Z,1006.2
2018-04-25T15:04:51.634Z,1006.2
2018-04-25T15:05:52.274Z,1006.1
2018-04-25T15:06:52.915Z,1006.1
2018-04-25T15:07:53.554Z,1006.0
2018-04-25T15:08:54.207Z,1005.9
2018-04-25T15:09:54.938Z,1005.9
2018-04-25T15:10:55.582Z,1005.9
2018-04-25T15:11:56.323Z,1005.9
2018-04-25T15:12:56.963Z,1005.9
2018-04-25T15:13:57.605Z,1005.9
2018-04-25T15:14:58.241Z,1005.9
2018-04-25T15:15:58.881Z,1005.9
2018-04-25T15:16:59.627Z,1006.0
2018-04-25T15:18:00.269Z,1005.9
2018-04-25T15:19:00.907Z,1005.9
2018-04-25T15:20:01.667Z,1005.9
2018-04-25T15:21:02.191Z,1005.9
2018-04-25T15:22:02.830Z,1005.8
2018-04-25T15:23:03.474Z,1005.8
2018-04-25T15:24:04.412Z,1005.8
2018-04-25T15:25:05.203Z,1005.8
2018-04-25T15:26:05.847Z,1005.8
2018-04-25T15:27:06.485Z,1005.8
2018-04-25T15:28:07.129Z,1005.7
2018-04-25T15:29:07.768Z,1005.7
2018-04-25T15:30:08.411Z,1005.7
2018-04-25T15:31:09.158Z,1005.8
2018-04-25T15:32:09.832Z,1005.8
2018-04-25T15:33:10.675Z,1005.9
2018-04-25T15:34:11.315Z,1005.9
2018-04-25T15:35:11.955Z,1005.9
2018-04-25T15:36:12.596Z,1005.9
2018-04-25T15:37:13.236Z,1005.9
2018-04-25T15:38:13.882Z,1005.9
2018-04-25T15:39:14.516Z,1005.8
2018-04-25T15:40:15.157Z,1005.8
2018-04-25T15:41:15.799Z,1005.8
2018-04-25T15:42:16.440Z,1005.8
2018-04-25T15:43:17.082Z,1005.8
2018-04-25T15:44:17.825Z,1005.8
2018-04-25T15:45:18.507Z,1005.8
2018-04-25T15:46:19.108Z,1005.9
2018-04-25T15:47:19.751Z,1005.8
2018-04-25T15:48:20.693Z,1005.8
2018-04-25T15:49:21.335Z,1005.8
2018-04-25T15:50:21.975Z,1005.7
2018-04-25T15:51:22.617Z,1005.7
2018-04-25T15:52:23.259Z,1005.7
2018-04-25T15:53:23.978Z,1005.7
2018-04-25T15:54:24.541Z,1005.7
2018-04-25T15:55:25.182Z,1005.7
2018-04-25T15:56:25.823Z,1005.7
2018-04-25T15:57:26.464Z,1005.7
2018-04-25T15:58:27.105Z,1005.7
2018-04-25T15:59:27.750Z,1005.7
2018-04-25T16:00:28.389Z,1005.7
2018-04-25T16:01:29.031Z,1005.7
2018-04-25T16:02:29.671Z,1005.7
2018-04-25T16:03:30.312Z,1005.7
2018-04-25T16:04:30.954Z,1005.7
2018-04-25T16:05:31.696Z,1005.7
2018-04-25T16:06:32.335Z,1005.7
2018-04-25T16:07:32.974Z,1005.7
2018-04-25T16:08:33.614Z,1005.8
2018-04-25T16:09:34.254Z,1005.7
2018-04-25T16:10:34.892Z,1005.8
2018-04-25T16:11:35.533Z,1005.8
2018-04-25T16:12:36.172Z,1005.7
2018-04-25T16:13:36.813Z,1005.7
2018-04-25T16:14:37.453Z,1005.7
2018-04-25T16:15:38.095Z,1005.8
2018-04-25T16:16:38.736Z,1005.7
2018-04-25T16:17:39.376Z,1005.7
2018-04-25T16:18:40.020Z,1005.8
2018-04-25T16:19:40.658Z,1005.7
2018-04-25T16:20:41.297Z,1005.7
2018-04-25T16:21:41.939Z,1005.6
2018-04-25T16:22:42.637Z,1005.6
2018-04-25T16:23:43.223Z,1005.6
2018-04-25T16:24:43.964Z,1005.6
2018-04-25T16:25:44.613Z,1005.6
2018-04-25T16:26:45.253Z,1005.7
2018-04-25T16:27:45.894Z,1005.6
2018-04-25T16:28:46.535Z,1005.6
2018-04-25T16:29:47.173Z,1005.6
2018-04-25T16:30:47.866Z,1005.7
2018-04-25T16:31:48.456Z,1005.5
2018-04-25T16:32:49.099Z,1005.6
2018-04-25T16:33:49.736Z,1005.5
2018-04-25T16:34:50.376Z,1005.5
2018-04-25T16:35:51.019Z,1005.5
2018-04-25T16:36:51.659Z,1005.5
2018-04-25T16:37:52.298Z,1005.5
2018-04-25T16:38:52.937Z,1005.5
2018-04-25T16:39:53.678Z,1005.5
2018-04-25T16:40:54.323Z,1005.5
2018-04-25T16:41:55.210Z,1005.5
2018-04-25T16:42:55.856Z,1005.5
2018-04-25T16:43:56.491Z,1005.5
2018-04-25T16:44:57.233Z,1005.5
2018-04-25T16:45:57.872Z,1005.4
2018-04-25T16:46:58.513Z,1005.4
2018-04-25T16:47:59.252Z,1005.4
2018-04-25T16:48:59.893Z,1005.4
2018-04-25T16:50:00.535Z,1005.4
2018-04-25T16:51:01.177Z,1005.4
2018-04-25T16:52:01.823Z,1005.4
2018-04-25T16:53:02.462Z,1005.4
2018-04-25T16:54:03.404Z,1005.4
2018-04-25T16:55:04.047Z,1005.4
2018-04-25T16:56:04.686Z,1005.4
2018-04-25T16:57:05.411Z,1005.4
2018-04-25T16:58:05.971Z,1005.4
2018-04-25T16:59:06.612Z,1005.4
2018-04-25T17:00:07.252Z,1005.4
2018-04-25T17:01:07.892Z,1005.4
2018-04-25T17:02:08.534Z,1005.4
2018-04-25T17:03:09.172Z,1005.5
2018-04-25T17:04:09.814Z,1005.5
2018-04-25T17:05:10.457Z,1005.5
2018-04-25T17:06:11.095Z,1005.5
2018-04-25T17:07:11.734Z,1005.5
2018-04-25T17:08:12.378Z,1005.5
2018-04-25T17:09:13.768Z,1005.5
2018-04-25T17:10:14.408Z,1005.6
2018-04-25T17:11:15.050Z,1005.5
2018-04-25T17:12:15.725Z,1005.5
2018-04-25T17:13:16.361Z,1005.5
2018-04-25T17:14:17.452Z,1005.5
2018-04-25T17:15:18.092Z,1005.4
2018-04-25T17:16:18.732Z,1005.4
2018-04-25T17:17:19.372Z,1005.4
2018-04-25T17:18:20.012Z,1005.4
2018-04-25T17:19:20.653Z,1005.4
2018-04-25T17:20:21.294Z,1005.5
2018-04-25T17:21:21.934Z,1005.4
2018-04-25T17:22:22.574Z,1005.4
2018-04-25T17:23:23.217Z,1005.4
2018-04-25T17:24:24.157Z,1005.4
2018-04-25T17:25:24.799Z,1005.4
2018-04-25T17:26:25.438Z,1005.4
2018-04-25T17:27:26.079Z,1005.4
2018-04-25T17:28:26.719Z,1005.5
2018-04-25T17:29:27.364Z,1005.5
2018-04-25T17:30:28.003Z,1005.5
2018-04-25T17:31:28.644Z,1005.4
2018-04-25T17:32:29.284Z,1005.4
2018-04-25T17:33:29.925Z,1005.4
2018-04-25T17:34:30.565Z,1005.5
2018-04-25T17:35:31.206Z,1005.4
2018-04-25T17:36:31.846Z,1005.5
2018-04-25T17:37:32.488Z,1005.5
2018-04-25T17:38:33.128Z,1005.5
2018-04-25T17:39:33.770Z,1005.5
2018-04-25T17:40:34.410Z,1005.5
2018-04-25T17:41:35.053Z,1005.5
2018-04-25T17:42:35.693Z,1005.5
2018-04-25T17:43:36.335Z,1005.5
2018-04-25T17:44:36.975Z,1005.5
2018-04-25T17:45:37.716Z,1005.5
2018-04-25T17:46:38.356Z,1005.5
2018-04-25T17:47:38.997Z,1005.5
2018-04-25T17:48:39.990Z,1005.5
2018-04-25T17:49:40.629Z,1005.5
2018-04-25T17:50:41.374Z,1005.5
2018-04-25T17:51:42.016Z,1005.5
2018-04-25T17:52:42.691Z,1005.4
2018-04-25T17:53:43.301Z,1005.5
2018-04-25T17:54:43.941Z,1005.5
2018-04-25T17:55:44.589Z,1005.5
2018-04-25T17:56:45.228Z,1005.6
2018-04-25T17:57:45.871Z,1005.5
2018-04-25T17:58:46.516Z,1005.6
2018-04-25T17:59:47.260Z,1005.6
2018-04-25T18:00:47.902Z,1005.6
2018-04-25T18:01:48.554Z,1005.5
2018-04-25T18:02:49.186Z,1005.6
2018-04-25T18:03:49.825Z,1005.7
2018-04-25T18:04:50.467Z,1005.6
2018-04-25T18:05:51.110Z,1005.6
2018-04-25T18:06:51.749Z,1005.6
2018-04-25T18:07:52.389Z,1005.6
2018-04-25T18:08:53.032Z,1005.6
2018-04-25T18:09:53.671Z,1005.6
2018-04-25T18:10:54.312Z,1005.6
2018-04-25T18:11:54.954Z,1005.6
2018-04-25T18:12:55.594Z,1005.6
2018-04-25T18:13:56.233Z,1005.7
2018-04-25T18:14:56.875Z,1005.7
2018-04-25T18:15:57.515Z,1005.7
2018-04-25T18:16:58.239Z,1005.8
2018-04-25T18:17:58.798Z,1005.7
2018-04-25T18:18:59.442Z,1005.8
2018-04-25T18:20:00.081Z,1005.7
2018-04-25T18:21:00.722Z,1005.8
2018-04-25T18:22:01.364Z,1005.8
2018-04-25T18:23:02.005Z,1005.8
2018-04-25T18:24:03.295Z,1005.8
2018-04-25T18:25:04.037Z,1005.8
2018-04-25T18:26:04.677Z,1005.8
2018-04-25T18:27:05.317Z,1005.8
2018-04-25T18:28:05.959Z,1005.8
2018-04-25T18:29:06.601Z,1005.8
2018-04-25T18:30:07.242Z,1005.8
2018-04-25T18:31:07.891Z,1005.8
2018-04-25T18:32:08.554Z,1005.8
2018-04-25T18:33:09.192Z,1005.9
2018-04-25T18:34:09.832Z,1005.8
2018-04-25T18:35:10.479Z,1005.8
2018-04-25T18:36:11.118Z,1005.8
2018-04-25T18:37:11.759Z,1005.8
2018-04-25T18:38:12.400Z,1005.8
2018-04-25T18:39:13.040Z,1005.8
2018-04-25T18:40:13.779Z,1005.8
2018-04-25T18:41:14.421Z,1005.8
2018-04-25T18:42:15.063Z,1005.8
2018-04-25T18:43:15.703Z,1005.9
2018-04-25T18:44:16.346Z,1005.9
2018-04-25T18:45:16.992Z,1006.0
2018-04-25T18:46:17.634Z,1006.0
2018-04-25T18:47:18.273Z,1006.0
2018-04-25T18:48:18.915Z,1006.0
2018-04-25T18:49:19.591Z,1006.0
2018-04-25T18:50:20.204Z,1006.0
2018-04-25T18:51:20.840Z,1006.0
2018-04-25T18:52:21.496Z,1006.0
2018-04-25T18:53:22.127Z,1006.0
2018-04-25T18:54:22.770Z,1006.0
2018-04-25T18:55:23.664Z,1006.0
2018-04-25T18:56:24.303Z,1006.0
2018-04-25T18:57:24.942Z,1006.0
2018-04-25T18:58:25.583Z,1006.0
2018-04-25T18:59:26.223Z,1006.0
2018-04-25T19:00:26.865Z,1006.0
2018-04-25T19:01:27.508Z,1006.0
2018-04-25T19:02:28.203Z,1006.0
2018-04-25T19:03:28.794Z,1006.0
2018-04-25T19:04:29.434Z,1006.0
2018-04-25T19:05:30.075Z,1006.1
2018-04-25T19:06:30.716Z,1006.0
2018-04-25T19:07:31.356Z,1006.0
2018-04-25T19:08:31.997Z,1006.1
2018-04-25T19:09:32.637Z,1006.1
2018-04-25T19:10:33.378Z,1006.1
2018-04-25T19:11:34.018Z,1006.1
2018-04-25T19:12:34.657Z,1006.1
2018-04-25T19:13:35.300Z,1006.2
2018-04-25T19:14:35.944Z,1006.2
2018-04-25T19:15:36.584Z,1006.2
2018-04-25T19:16:37.224Z,1006.2
2018-04-25T19:17:37.863Z,1006.2
2018-04-25T19:18:38.502Z,1006.3
2018-04-25T19:19:39.141Z,1006.2
2018-04-25T19:20:39.782Z,1006.2
2018-04-25T19:21:40.422Z,1006.2
2018-04-25T19:22:41.064Z,1006.3
2018-04-25T19:23:41.703Z,1006.3
2018-04-25T19:24:42.443Z,1006.3
2018-04-25T19:25:43.085Z,1006.3
2018-04-25T19:26:43.726Z,1006.3
2018-04-25T19:27:44.367Z,1006.3
2018-04-25T19:28:45.008Z,1006.3
2018-04-25T19:29:45.653Z,1006.3
2018-04-25T19:30:46.288Z,1006.2
2018-04-25T19:31:46.929Z,1006.2
2018-04-25T19:32:47.569Z,1006.2
2018-04-25T19:33:48.210Z,1006.2
2018-04-25T19:34:48.851Z,1006.3
2018-04-25T19:35:49.491Z,1006.3
2018-04-25T19:36:50.132Z,1006.3
2018-04-25T19:37:50.769Z,1006.2
2018-04-25T19:38:51.409Z,1006.3
2018-04-25T19:39:52.204Z,1006.3
2018-04-25T19:40:52.843Z,1006.3
2018-04-25T19:41:53.482Z,1006.3
2018-04-25T19:42:54.121Z,1006.4
2018-04-25T19:43:54.763Z,1006.4
2018-04-25T19:44:55.476Z,1006.4
2018-04-25T19:45:56.043Z,1006.4
2018-04-25T19:46:56.683Z,1006.4
2018-04-25T19:47:57.324Z,1006.4
2018-04-25T19:48:57.964Z,1006.4
2018-04-25T19:49:58.625Z,1006.4
2018-04-25T19:50:59.255Z,1006.4
2018-04-25T19:51:59.894Z,1006.4
2018-04-25T19:53:00.533Z,1006.4
2018-04-25T19:54:01.176Z,1006.4
2018-04-25T19:55:01.921Z,1006.4
2018-04-25T19:56:02.564Z,1006.4
2018-04-25T19:57:03.209Z,1006.3
2018-04-25T19:58:03.855Z,1006.4
2018-04-25T19:59:04.489Z,1006.4
2018-04-25T20:00:05.129Z,1006.4
2018-04-25T20:01:05.771Z,1006.4
2018-04-25T20:02:06.411Z,1006.5
2018-04-25T20:03:07.051Z,1006.4
2018-04-25T20:04:07.690Z,1006.4
2018-04-25T20:05:08.333Z,1006.5
2018-04-25T20:06:08.968Z,1006.5
2018-04-25T20:07:09.610Z,1006.5
2018-04-25T20:08:10.251Z,1006.5
2018-04-25T20:09:10.895Z,1006.5
2018-04-25T20:10:11.639Z,1006.5
2018-04-25T20:11:12.274Z,1006.5
2018-04-25T20:12:12.988Z,1006.5
2018-04-25T20:13:13.629Z,1006.5
2018-04-25T20:14:14.270Z,1006.5
2018-04-25T20:15:15.048Z,1006.5
2018-04-25T20:16:15.552Z,1006.4
2018-04-25T20:17:16.194Z,1006.5
2018-04-25T20:18:16.835Z,1006.4
2018-04-25T20:19:17.478Z,1006.5
2018-04-25T20:20:18.117Z,1006.5
2018-04-25T20:21:18.757Z,1006.5
2018-04-25T20:22:19.397Z,1006.5
2018-04-25T20:23:20.040Z,1006.5
2018-04-25T20:24:21.032Z,1006.5
2018-04-25T20:25:21.674Z,1006.5
2018-04-25T20:26:22.317Z,1006.5
2018-04-25T20:27:22.956Z,1006.5
2018-04-25T20:28:23.596Z,1006.5
2018-04-25T20:29:24.236Z,1006.6
2018-04-25T20:30:24.877Z,1006.6
2018-04-25T20:31:25.518Z,1006.6
2018-04-25T20:32:26.160Z,1006.5
2018-04-25T20:33:26.802Z,1006.6
2018-04-25T20:34:27.442Z,1006.6
2018-04-25T20:35:28.084Z,1006.6
2018-04-25T20:36:28.725Z,1006.6
2018-04-25T20:37:29.362Z,1006.6
2018-04-25T20:38:30.037Z,1006.6
2018-04-25T20:39:30.895Z,1006.6
2018-04-25T20:40:31.536Z,1006.6
2018-04-25T20:41:32.178Z,1006.6
2018-04-25T20:42:32.819Z,1006.7
2018-04-25T20:43:33.461Z,1006.7
2018-04-25T20:44:34.101Z,1006.8
2018-04-25T20:45:34.742Z,1006.8
2018-04-25T20:46:35.383Z,1006.7
2018-04-25T20:47:36.024Z,1006.7
2018-04-25T20:48:36.665Z,1006.8
2018-04-25T20:49:37.305Z,1006.7
2018-04-25T20:50:37.947Z,1006.8
2018-04-25T20:51:38.614Z,1006.8
2018-04-25T20:52:39.231Z,1006.8
2018-04-25T20:53:39.872Z,1006.7
2018-04-25T20:54:40.618Z,1006.7
2018-04-25T20:55:41.254Z,1006.7
2018-04-25T20:56:41.893Z,1006.7
2018-04-25T20:57:42.533Z,1006.7
2018-04-25T20:58:43.173Z,1006.7
2018-04-25T20:59:43.814Z,1006.7
2018-04-25T21:00:44.454Z,1006.7
2018-04-25T21:01:45.095Z,1006.8
2018-04-25T21:02:45.735Z,1006.8
2018-04-25T21:03:46.383Z,1006.8
2018-04-25T21:04:47.022Z,1006.8
2018-04-25T21:05:47.665Z,1006.8
2018-04-25T21:06:48.312Z,1006.9
2018-04-25T21:07:48.954Z,1006.9
2018-04-25T21:08:49.625Z,1006.9
2018-04-25T21:09:50.244Z,1006.8
2018-04-25T21:10:50.884Z,1006.8
2018-04-25T21:11:51.524Z,1006.7
2018-04-25T21:12:52.166Z,1006.8
2018-04-25T21:13:52.805Z,1006.7
2018-04-25T21:14:53.446Z,1006.7
2018-04-25T21:15:54.090Z,1006.7
2018-04-25T21:16:54.727Z,1006.6
2018-04-25T21:17:55.368Z,1006.7
2018-04-25T21:18:56.012Z,1006.6
2018-04-25T21:19:56.652Z,1006.6
2018-04-25T21:20:57.293Z,1006.7
2018-04-25T21:21:57.940Z,1006.7
2018-04-25T21:22:58.576Z,1006.7
2018-04-25T21:23:59.287Z,1006.7
2018-04-25T21:24:59.939Z,1006.7
2018-04-25T21:26:00.500Z,1006.7
2018-04-25T21:27:01.162Z,1006.7
2018-04-25T21:28:01.780Z,1006.7
2018-04-25T21:29:02.422Z,1006.7
2018-04-25T21:30:03.062Z,1006.6
2018-04-25T21:31:03.703Z,1006.7
2018-04-25T21:32:04.344Z,1006.6
2018-04-25T21:33:04.986Z,1006.6
2018-04-25T21:34:05.628Z,1006.7
2018-04-25T21:35:06.270Z,1006.6
2018-04-25T21:36:06.918Z,1006.6
2018-04-25T21:37:07.556Z,1006.6
2018-04-25T21:38:08.197Z,1006.6
2018-04-25T21:39:08.838Z,1006.6
2018-04-25T21:40:09.630Z,1006.6
2018-04-25T21:41:10.274Z,1006.5
2018-04-25T21:42:10.915Z,1006.5
2018-04-25T21:43:11.556Z,1006.6
2018-04-25T21:44:12.195Z,1006.5
2018-04-25T21:45:12.835Z,1006.6
2018-04-25T21:46:13.474Z,1006.5
2018-04-25T21:47:14.115Z,1006.5
2018-04-25T21:48:14.756Z,1006.5
2018-04-25T21:49:15.397Z,1006.5
2018-04-25T21:50:16.038Z,1006.5
2018-04-25T21:51:16.697Z,1006.5
2018-04-25T21:52:17.385Z,1006.5
2018-04-25T21:53:18.024Z,1006.5
2018-04-25T21:54:18.665Z,1006.5
2018-04-25T21:55:19.406Z,1006.5
2018-04-25T21:56:20.048Z,1006.5
2018-04-25T21:57:20.690Z,1006.5
2018-04-25T21:58:21.332Z,1006.5
2018-04-25T21:59:21.974Z,1006.5
2018-04-25T22:00:22.615Z,1006.5
2018-04-25T22:01:23.257Z,1006.5
2018-04-25T22:02:23.897Z,1006.6
2018-04-25T22:03:24.539Z,1006.5
2018-04-25T22:04:25.204Z,1006.5
2018-04-25T22:05:25.823Z,1006.6
2018-04-25T22:06:26.465Z,1006.6
2018-04-25T22:07:27.107Z,1006.6
2018-04-25T22:08:27.747Z,1006.6
2018-04-25T22:09:28.386Z,1006.6
2018-04-25T22:10:29.179Z,1006.6
2018-04-25T22:11:29.820Z,1006.6
2018-04-25T22:12:30.462Z,1006.5
2018-04-25T22:13:31.105Z,1006.6
2018-04-25T22:14:31.744Z,1006.6
2018-04-25T22:15:32.385Z,1006.6
2018-04-25T22:16:33.032Z,1006.6
2018-04-25T22:17:33.671Z,1006.6
2018-04-25T22:18:34.311Z,1006.6
2018-04-25T22:19:34.952Z,1006.6
2018-04-25T22:20:35.591Z,1006.6
2018-04-25T22:21:36.232Z,1006.6
2018-04-25T22:22:36.873Z,1006.6
2018-04-25T22:23:37.516Z,1006.6
2018-04-25T22:24:38.258Z,1006.6
2018-04-25T22:25:38.898Z,1006.5
2018-04-25T22:26:39.541Z,1006.5
2018-04-25T22:27:40.182Z,1006.5
2018-04-25T22:28:40.823Z,1006.5
2018-04-25T22:29:41.464Z,1006.5
2018-04-25T22:30:42.108Z,1006.5
2018-04-25T22:31:42.748Z,1006.5
2018-04-25T22:32:43.388Z,1006.5
2018-04-25T22:33:44.029Z,1006.5
2018-04-25T22:34:44.671Z,1006.5
2018-04-25T22:35:45.312Z,1006.5
2018-04-25T22:36:45.960Z,1006.5
2018-04-25T22:37:46.595Z,1006.5
2018-04-25T22:38:47.236Z,1006.5
2018-04-25T22:39:47.877Z,1006.5
2018-04-25T22:40:48.519Z,1006.6
2018-04-25T22:41:49.159Z,1006.6
2018-04-25T22:42:49.803Z,1006.6
2018-04-25T22:43:50.441Z,1006.6
2018-04-25T22:44:51.082Z,1006.6
2018-04-25T22:45:51.724Z,1006.6
2018-04-25T22:46:52.367Z,1006.6
2018-04-25T22:47:53.008Z,1006.6
2018-04-25T22:48:53.649Z,1006.6
2018-04-25T22:49:54.289Z,1006.6
2018-04-25T22:50:54.931Z,1006.6
2018-04-25T22:51:55.571Z,1006.7
2018-04-25T22:52:56.212Z,1006.7
2018-04-25T22:53:56.852Z,1006.6
2018-04-25T22:54:57.748Z,1006.7
2018-04-25T22:55:58.385Z,1006.6
2018-04-25T22:56:59.027Z,1006.7
2018-04-25T22:57:59.668Z,1006.7
2018-04-25T22:59:00.308Z,1006.6
2018-04-25T23:00:00.956Z,1006.6
2018-04-25T23:01:01.601Z,1006.6
2018-04-25T23:02:02.239Z,1006.6
2018-04-25T23:03:02.881Z,1006.6
2018-04-25T23:04:03.521Z,1006.6
2018-04-25T23:05:04.163Z,1006.6
2018-04-25T23:06:04.807Z,1006.6
2018-04-25T23:07:05.444Z,1006.6
2018-04-25T23:08:06.158Z,1006.6
2018-04-25T23:09:06.725Z,1006.6
2018-04-25T23:10:07.466Z,1006.6
2018-04-25T23:11:08.108Z,1006.6
2018-04-25T23:12:08.810Z,1006.6
2018-04-25T23:13:09.504Z,1006.6
2018-04-25T23:14:10.144Z,1006.6
2018-04-25T23:15:10.785Z,1006.6
2018-04-25T23:16:11.424Z,1006.6
2018-04-25T23:17:12.069Z,1006.5
2018-04-25T23:18:12.707Z,1006.6
2018-04-25T23:19:13.349Z,1006.6
2018-04-25T23:20:13.990Z,1006.6
2018-04-25T23:21:14.632Z,1006.6
2018-04-25T23:22:15.275Z,1006.6
2018-04-25T23:23:15.914Z,1006.6
2018-04-25T23:24:16.904Z,1006.6
2018-04-25T23:25:17.544Z,1006.6
2018-04-25T23:26:18.184Z,1006.5
2018-04-25T23:27:18.826Z,1006.6
2018-04-25T23:28:19.467Z,1006.5
2018-04-25T23:29:20.108Z,1006.5
2018-04-25T23:30:20.749Z,1006.5
2018-04-25T23:31:21.448Z,1006.5
2018-04-25T23:32:22.072Z,1006.5
2018-04-25T23:33:22.712Z,1006.5
2018-04-25T23:34:23.351Z,1006.5
2018-04-25T23:35:23.993Z,1006.5
2018-04-25T23:36:24.634Z,1006.5
2018-04-25T23:37:25.275Z,1006.6
2018-04-25T23:38:25.913Z,1006.5
2018-04-25T23:39:26.662Z,1006.5
2018-04-25T23:40:27.296Z,1006.5
2018-04-25T23:41:27.939Z,1006.5
2018-04-25T23:42:28.579Z,1006.5
2018-04-25T23:43:29.220Z,1006.5
2018-04-25T23:44:29.865Z,1006.5
2018-04-25T23:45:30.504Z,1006.5
2018-04-25T23:46:31.145Z,1006.5
2018-04-25T23:47:31.786Z,1006.5
2018-04-25T23:48:32.428Z,1006.5
2018-04-25T23:49:33.071Z,1006.5
2018-04-25T23:50:33.711Z,1006.5
2018-04-25T23:51:34.352Z,1006.5
2018-04-25T23:52:34.993Z,1006.5
2018-04-25T23:53:35.634Z,1006.5
2018-04-25T23:54:36.277Z,1006.5
2018-04-25T23:55:36.916Z,1006.5
2018-04-25T23:56:37.560Z,1006.5
2018-04-25T23:57:38.200Z,1006.5
2018-04-25T23:58:38.841Z,1006.5
2018-04-25T23:59:39.482Z,1006.5
